KACT/ACT METAR and TAF weather

Enter ICAO airport designator
Station Type Date Time Source
KACT METAR 2019/02/23 16:51 UTC NOAA

KACT 231651Z 26020G24KT 10SM CLR 17/M03 A2992 RMK AO2 SLP127 T01721028


Station Type Date Time Source
KACT Decoded METAR 2019/02/23 16:51 UTC NOAA

WACO REGIONAL AIRPORT, TX, United States (KACT) 31-36N 97-13W 151M
Feb 23, 2019 - 11:51 AM EST / 2019.02.23 1651 UTC
Wind: from the W (260 degrees) at 23 MPH (20 KT) gusting to 28 MPH (24 KT):0
Visibility: 10 mile(s):0
Sky conditions: clear
Temperature: 63.0 F (17.2 C)
Dew Point: 27.0 F (-2.8 C)
Relative Humidity: 25%
Pressure (altimeter): 29.92 in. Hg (1013 hPa)
ob: KACT 231651Z 26020G24KT 10SM CLR 17/M03 A2992 RMK AO2 SLP127 T01721028
cycle: 17

Station Type Date Time Source
KACT TAF 2019/02/23 15:54 UTC NOAA

TAF
AMD KACT 231450Z 2315/2412 25014G24KT P6SM BKN250
FM232000 24020G30KT P6SM FEW250
FM240600 33011KT P6SM FEW250


Example: see airport list